Time;durP1;ratioP1;P1;durP2;ratioP2;P2;SDS_P1;SDS_P2;PMS_P1;PMS_P2;Temp;Humidity;BMP_temperature;BMP_pressure;BME280_temperature;BME280_humidity;BME280_pressure;Samples;Min_cycle;Max_cycle;Signal;HPM_P1;HPM_P2
2022/08/24 00:02:03;;;;;;;37.83;23.08;;;18.40;99.90;;;;;;5035429;28;20042;-76
2022/08/24 00:04:31;;;;;;;34.50;22.60;;;18.50;99.90;;;;;;5035348;28;20045;-76
2022/08/24 00:06:58;;;;;;;35.45;21.80;;;18.50;99.90;;;;;;5033862;28;20092;-76
2022/08/24 00:09:25;;;;;;;40.40;23.25;;;18.40;99.90;;;;;;5033935;28;20077;-77
2022/08/24 00:11:53;;;;;;;39.22;23.55;;;18.40;99.90;;;;;;5034988;28;20473;-77
2022/08/24 00:14:20;;;;;;;34.28;22.05;;;18.40;99.90;;;;;;5054704;28;20452;-76
2022/08/24 00:16:49;;;;;;;37.33;22.33;;;18.40;99.90;;;;;;5053411;28;20606;-76
2022/08/24 00:19:16;;;;;;;33.67;22.90;;;18.50;99.90;;;;;;5055540;28;20037;-76
2022/08/24 00:21:43;;;;;;;35.35;21.42;;;18.50;99.90;;;;;;5054974;28;20147;-74
2022/08/24 00:24:11;;;;;;;30.08;20.35;;;18.50;99.90;;;;;;5056044;28;20098;-77
2022/08/24 00:26:38;;;;;;;32.05;20.10;;;18.50;99.90;;;;;;5054856;28;20056;-76
2022/08/24 00:29:05;;;;;;;35.90;22.13;;;18.50;99.90;;;;;;5054611;28;20045;-76
2022/08/24 00:31:33;;;;;;;31.50;20.70;;;18.50;99.90;;;;;;5053802;28;20084;-75
2022/08/24 00:34:01;;;;;;;34.33;20.75;;;18.50;99.90;;;;;;5054306;28;20140;-76
2022/08/24 00:36:29;;;;;;;34.35;21.08;;;18.50;99.90;;;;;;5057736;28;20045;-76
2022/08/24 00:38:56;;;;;;;37.90;23.35;;;18.60;99.90;;;;;;5059343;28;20067;-76
2022/08/24 00:41:23;;;;;;;36.53;22.30;;;18.50;99.90;;;;;;5056785;28;20044;-76
2022/08/24 00:43:54;;;;;;;57.03;37.53;;;18.60;99.90;;;;;;5056606;28;20491;-75
2022/08/24 00:46:26;;;;;;;36.58;23.20;;;18.60;99.90;;;;;;5060115;28;20048;-76
2022/08/24 00:49:02;;;;;;;35.38;22.45;;;18.60;99.90;;;;;;5056869;28;20066;-76
2022/08/24 00:51:33;;;;;;;38.08;23.38;;;18.60;99.90;;;;;;5073900;28;20044;-76
2022/08/24 00:54:05;;;;;;;36.22;23.15;;;18.60;99.90;;;;;;5074175;28;20051;-76
2022/08/24 00:56:37;;;;;;;38.10;22.13;;;18.60;99.90;;;;;;5074515;28;20106;-77
2022/08/24 00:59:10;;;;;;;40.40;23.73;;;18.70;99.90;;;;;;5074571;28;20052;-75
2022/08/24 01:01:38;;;;;;;34.72;21.52;;;18.60;99.90;;;;;;5056284;28;20068;-76
2022/08/24 01:04:10;;;;;;;34.50;20.80;;;18.70;99.90;;;;;;5055703;28;20052;-76
2022/08/24 01:06:37;;;;;;;34.38;21.35;;;18.70;99.90;;;;;;5056520;28;20040;-76
2022/08/24 01:09:05;;;;;;;33.70;21.77;;;18.70;99.90;;;;;;5074696;28;20040;-76
2022/08/24 01:11:33;;;;;;;36.42;22.77;;;18.60;99.90;;;;;;5056897;28;20469;-76
2022/08/24 01:14:02;;;;;;;38.75;24.48;;;18.70;99.90;;;;;;5055678;28;20457;-76
2022/08/24 01:19:24;;;;;;;40.88;24.17;;;18.70;99.90;;;;;;5055833;28;20040;-75
2022/08/24 01:22:01;;;;;;;36.13;23.45;;;18.70;99.90;;;;;;5037002;28;20067;-76
2022/08/24 01:24:30;;;;;;;43.70;24.98;;;18.70;99.90;;;;;;5042071;28;20074;-74
2022/08/24 01:26:58;;;;;;;39.85;24.15;;;18.70;99.90;;;;;;5058895;28;20041;-75
2022/08/24 01:29:30;;;;;;;36.25;22.23;;;18.70;99.90;;;;;;5082581;28;20095;-75
2022/08/24 01:31:57;;;;;;;41.42;24.63;;;18.70;99.90;;;;;;5081158;28;20045;-76
2022/08/24 01:34:25;;;;;;;42.65;24.67;;;18.70;99.90;;;;;;5075570;28;20036;-76
2022/08/24 01:36:55;;;;;;;42.13;26.15;;;18.70;99.90;;;;;;5056019;28;20103;-76
2022/08/24 01:39:26;;;;;;;39.83;25.15;;;18.70;99.90;;;;;;5056186;28;20484;-75
2022/08/24 01:41:55;;;;;;;38.78;25.30;;;18.70;99.90;;;;;;5055967;28;20052;-75
2022/08/24 01:44:25;;;;;;;44.90;26.70;;;18.70;99.90;;;;;;5067575;28;20074;-77
2022/08/24 01:46:54;;;;;;;49.78;26.67;;;18.70;99.90;;;;;;5074455;28;20059;-75
2022/08/24 01:49:23;;;;;;;51.28;28.35;;;18.70;99.90;;;;;;5075364;28;20080;-76
2022/08/24 01:51:50;;;;;;;44.17;26.52;;;18.70;99.90;;;;;;5076090;28;20059;-76
2022/08/24 01:54:17;;;;;;;47.80;28.02;;;18.70;99.90;;;;;;5078935;28;20055;-76
2022/08/24 01:56:44;;;;;;;47.40;27.60;;;18.70;99.90;;;;;;5076360;28;20040;-76
2022/08/24 01:59:13;;;;;;;52.40;29.48;;;18.80;99.90;;;;;;5071733;28;20080;-76
2022/08/24 02:01:47;;;;;;;50.60;30.92;;;18.80;99.90;;;;;;5074317;28;20040;-74
2022/08/24 02:04:15;;;;;;;46.20;27.85;;;18.80;99.90;;;;;;5057890;28;20052;-76
2022/08/24 02:06:43;;;;;;;49.63;29.17;;;18.80;99.90;;;;;;5062733;28;20049;-76
2022/08/24 02:09:11;;;;;;;49.53;29.35;;;18.80;99.90;;;;;;5063675;28;20044;-77
2022/08/24 02:11:40;;;;;;;46.55;29.02;;;18.80;99.90;;;;;;5062812;28;20055;-77
2022/08/24 02:14:13;;;;;;;41.83;25.75;;;18.80;99.90;;;;;;5061743;28;20049;-75
2022/08/24 02:16:41;;;;;;;43.78;26.00;;;18.80;99.90;;;;;;5061503;28;20102;-76
2022/08/24 02:19:08;;;;;;;43.15;26.00;;;18.80;99.90;;;;;;5061562;28;20045;-75
2022/08/24 02:21:36;;;;;;;49.97;28.15;;;18.80;99.90;;;;;;5061526;28;20044;-76
2022/08/24 02:24:04;;;;;;;45.70;27.35;;;18.80;99.90;;;;;;5061638;28;20040;-76
2022/08/24 02:26:32;;;;;;;50.00;29.48;;;18.80;99.90;;;;;;5063372;28;20048;-76
2022/08/24 02:29:00;;;;;;;45.40;28.02;;;18.80;99.90;;;;;;5063543;28;20068;-76
2022/08/24 02:31:29;;;;;;;48.70;29.17;;;18.70;99.90;;;;;;5063645;28;20044;-77
2022/08/24 02:33:56;;;;;;;46.60;27.83;;;18.70;99.90;;;;;;5065259;28;20045;-76
2022/08/24 02:36:24;;;;;;;40.65;25.95;;;18.70;99.90;;;;;;5060402;28;20048;-77
2022/08/24 02:38:52;;;;;;;49.75;28.45;;;18.70;99.90;;;;;;5059011;28;20041;-76
2022/08/24 02:41:19;;;;;;;47.78;28.85;;;18.60;99.90;;;;;;5058923;28;20048;-76
2022/08/24 02:43:47;;;;;;;42.60;27.60;;;18.60;99.90;;;;;;5058576;28;20056;-76
2022/08/24 02:46:18;;;;;;;45.03;27.55;;;18.60;99.90;;;;;;5059398;28;20040;-75
2022/08/24 02:48:47;;;;;;;49.13;28.95;;;18.60;99.90;;;;;;5060120;28;20040;-77
2022/08/24 02:51:20;;;;;;;44.67;28.05;;;18.60;99.90;;;;;;5062623;28;20087;-75
2022/08/24 02:53:48;;;;;;;44.95;28.58;;;18.60;99.90;;;;;;5061949;28;20048;-75
2022/08/24 02:56:16;;;;;;;47.42;28.98;;;18.60;99.90;;;;;;5069489;28;20067;-75
2022/08/24 02:58:44;;;;;;;47.38;28.63;;;18.60;99.90;;;;;;5073788;28;20040;-77
2022/08/24 03:01:12;;;;;;;47.40;28.90;;;18.60;99.90;;;;;;5075021;28;20044;-76
2022/08/24 03:03:42;;;;;;;48.80;29.45;;;18.60;99.90;;;;;;5073726;28;20048;-76
2022/08/24 03:06:11;;;;;;;45.15;28.45;;;18.60;99.90;;;;;;5069088;28;20094;-75
2022/08/24 03:08:39;;;;;;;46.25;27.52;;;18.70;99.90;;;;;;5059315;28;20084;-76
2022/08/24 03:11:08;;;;;;;48.63;28.92;;;18.70;99.90;;;;;;5058746;28;20045;-76
2022/08/24 03:13:36;;;;;;;46.95;27.73;;;18.70;99.90;;;;;;5096825;28;20090;-76
2022/08/24 03:16:05;;;;;;;51.45;30.50;;;18.60;99.90;;;;;;5093082;28;20133;-76
2022/08/24 03:18:33;;;;;;;48.80;31.42;;;18.60;99.90;;;;;;5063125;28;20040;-75
2022/08/24 03:21:02;;;;;;;52.05;30.67;;;18.60;99.90;;;;;;5059891;28;20053;-76
2022/08/24 03:23:33;;;;;;;51.05;31.20;;;18.60;99.90;;;;;;5059501;28;20135;-75
2022/08/24 03:26:01;;;;;;;52.45;32.47;;;18.50;99.90;;;;;;5059929;28;20102;-76
2022/08/24 03:28:29;;;;;;;52.88;31.20;;;18.60;99.90;;;;;;5060050;28;20040;-76
2022/08/24 03:30:57;;;;;;;52.55;32.15;;;18.50;99.90;;;;;;5077074;28;20040;-75
2022/08/24 03:33:24;;;;;;;60.13;32.20;;;18.50;99.90;;;;;;5062119;28;20112;-76
2022/08/24 03:35:52;;;;;;;55.85;31.75;;;18.50;99.90;;;;;;5063710;28;20044;-76
2022/08/24 03:38:22;;;;;;;53.17;32.45;;;18.50;99.90;;;;;;5059805;22;20514;-77
2022/08/24 03:40:51;;;;;;;51.53;32.00;;;18.50;99.90;;;;;;5048964;28;20045;-77
2022/08/24 03:46:06;;;;;;;51.85;31.13;;;18.60;99.90;;;;;;5041738;28;20045;-77
2022/08/24 03:48:35;;;;;;;42.28;28.30;;;18.60;99.90;;;;;;5032020;28;20045;-77
2022/08/24 03:51:03;;;;;;;46.67;28.75;;;18.70;99.90;;;;;;5033493;28;20522;-77
2022/08/24 03:53:31;;;;;;;46.75;29.17;;;18.70;99.90;;;;;;5066653;28;20042;-77
2022/08/24 03:56:01;;;;;;;45.58;28.20;;;18.60;99.90;;;;;;5033590;28;20530;-77
2022/08/24 03:58:28;;;;;;;45.83;27.65;;;18.60;99.90;;;;;;5054127;28;20041;-77
2022/08/24 04:00:57;;;;;;;38.03;25.67;;;18.60;99.90;;;;;;5053097;28;20496;-77
2022/08/24 04:03:28;;;;;;;39.40;27.08;;;18.60;99.90;;;;;;5053006;28;20503;-78
2022/08/24 04:05:55;;;;;;;39.53;25.60;;;18.60;99.90;;;;;;5054369;28;20103;-76
2022/08/24 04:08:23;;;;;;;37.03;24.42;;;18.70;99.90;;;;;;5053394;28;20094;-77
2022/08/24 04:10:50;;;;;;;35.40;23.45;;;18.70;99.90;;;;;;5052848;28;20053;-77
2022/08/24 04:13:19;;;;;;;33.35;23.38;;;18.70;99.90;;;;;;5032848;28;20053;-76
2022/08/24 04:15:57;;;;;;;;;;;;;;;;;;;;;
2022/08/24 04:18:24;;;;;;;27.67;17.95;;;18.70;99.90;;;;;;5032550;28;20527;-77
2022/08/24 04:20:51;;;;;;;24.80;17.50;;;18.70;99.90;;;;;;5053609;28;20150;-77
2022/08/24 04:23:19;;;;;;;23.83;17.00;;;18.80;99.90;;;;;;5052208;28;20126;-77
2022/08/24 04:25:48;;;;;;;22.33;15.65;;;18.80;99.90;;;;;;5068662;28;20048;-77
2022/08/24 04:28:17;;;;;;;22.80;14.95;;;18.80;99.90;;;;;;5071704;28;20049;-77
2022/08/24 04:30:49;;;;;;;24.02;16.38;;;18.80;99.90;;;;;;5070390;28;20037;-77
2022/08/24 04:33:25;;;;;;;21.95;16.42;;;18.80;99.90;;;;;;5051486;28;20067;-77
2022/08/24 04:35:52;;;;;;;24.33;16.70;;;18.80;99.90;;;;;;5069568;28;20052;-77
2022/08/24 04:38:22;;;;;;;31.92;18.08;;;18.80;99.90;;;;;;5072059;28;20131;-77
2022/08/24 04:41:06;;;;;;;19.85;16.20;;;18.80;99.90;;;;;;5072605;28;20388;-77
2022/08/24 04:43:34;;;;;;;20.10;16.38;;;18.80;99.90;;;;;;5072456;28;20048;-77
2022/08/24 04:46:06;;;;;;;22.30;18.30;;;18.90;99.90;;;;;;5072249;28;20041;-78
2022/08/24 04:48:35;;;;;;;22.92;19.00;;;18.90;99.90;;;;;;5052518;28;20412;-77
2022/08/24 04:51:03;;;;;;;25.25;16.63;;;18.90;99.90;;;;;;5052281;28;20139;-77
2022/08/24 04:53:31;;;;;;;20.52;15.77;;;18.90;99.90;;;;;;5053296;28;20048;-78
2022/08/24 04:55:59;;;;;;;18.85;14.77;;;18.90;99.90;;;;;;5051464;28;20047;-77
2022/08/24 04:58:27;;;;;;;28.55;15.73;;;18.90;99.90;;;;;;5035330;28;20028;-77
2022/08/24 05:00:55;;;;;;;26.48;16.83;;;18.90;99.90;;;;;;5052399;28;20063;-77
2022/08/24 05:03:23;;;;;;;24.58;18.73;;;19.00;99.90;;;;;;5052158;28;20079;-76
2022/08/24 05:05:51;;;;;;;19.33;14.02;;;19.00;99.90;;;;;;5068789;28;20053;-77
2022/08/24 05:08:20;;;;;;;23.95;17.73;;;19.10;99.90;;;;;;5051887;28;20045;-76
2022/08/24 05:10:49;;;;;;;24.70;19.75;;;19.10;99.90;;;;;;5053232;28;20136;-77
2022/08/24 05:13:17;;;;;;;23.60;17.52;;;19.10;99.90;;;;;;5052661;28;20049;-78
2022/08/24 05:15:46;;;;;;;23.27;18.27;;;19.10;99.90;;;;;;5052144;28;20079;-77
2022/08/24 05:18:14;;;;;;;25.90;20.00;;;19.10;99.90;;;;;;5051706;28;20041;-77
2022/08/24 05:20:45;;;;;;;24.45;18.73;;;19.20;99.90;;;;;;5051968;28;20048;-78
2022/08/24 05:23:14;;;;;;;21.00;16.02;;;19.20;99.90;;;;;;5052237;28;20117;-77
2022/08/24 05:25:41;;;;;;;51.55;19.48;;;19.20;99.90;;;;;;5067348;28;20056;-77
2022/08/24 05:28:09;;;;;;;18.45;16.25;;;19.20;99.90;;;;;;5073262;28;20438;-77
2022/08/24 05:30:36;;;;;;;20.20;16.00;;;19.30;99.90;;;;;;5068030;28;20045;-76
2022/08/24 05:33:04;;;;;;;20.77;14.35;;;19.30;99.90;;;;;;5051481;28;20055;-78
2022/08/24 05:35:31;;;;;;;19.13;17.05;;;19.40;99.90;;;;;;5055266;28;20496;-77
2022/08/24 05:38:00;;;;;;;16.23;14.43;;;19.30;99.90;;;;;;5064402;28;20094;-77
2022/08/24 05:40:34;;;;;;;16.05;13.18;;;19.40;99.90;;;;;;5058984;28;20406;-77
2022/08/24 05:43:02;;;;;;;18.67;14.90;;;19.40;99.90;;;;;;5059301;28;20051;-78
2022/08/24 05:45:30;;;;;;;19.02;14.50;;;19.40;99.90;;;;;;5059312;28;20090;-77
2022/08/24 05:47:58;;;;;;;18.52;16.25;;;19.40;99.90;;;;;;5058842;28;20071;-77
2022/08/24 05:50:44;;;;;;;16.75;12.90;;;19.40;99.90;;;;;;5073137;28;20123;-77
2022/08/24 05:53:15;;;;;;;17.58;13.05;;;19.50;99.90;;;;;;5058370;28;20048;-78
2022/08/24 05:55:44;;;;;;;18.52;12.63;;;19.50;99.90;;;;;;5058849;28;20048;-76
2022/08/24 05:58:12;;;;;;;30.90;18.60;;;19.60;99.90;;;;;;5059341;28;20039;-76
2022/08/24 06:00:40;;;;;;;19.13;15.45;;;19.60;99.90;;;;;;5060114;28;20051;-77
2022/08/24 06:03:07;;;;;;;14.55;11.85;;;19.70;99.90;;;;;;5075851;28;20048;-77
2022/08/24 06:05:39;;;;;;;10.63;9.52;;;19.70;99.90;;;;;;5059067;28;20136;-77
2022/08/24 06:08:07;;;;;;;10.25;8.88;;;19.70;99.90;;;;;;5094285;28;20487;-77
2022/08/24 06:10:41;;;;;;;14.65;11.13;;;19.80;99.90;;;;;;5078871;28;20044;-78
2022/08/24 06:13:13;;;;;;;13.20;10.00;;;19.80;99.90;;;;;;5058534;28;20499;-78
2022/08/24 06:15:42;;;;;;;13.77;8.85;;;20.00;99.90;;;;;;5058500;28;20451;-78
2022/08/24 06:18:11;;;;;;;11.73;10.52;;;20.10;99.90;;;;;;5058501;28;20118;-76
2022/08/24 06:20:42;;;;;;;12.50;9.88;;;20.20;99.90;;;;;;5058023;28;20095;-76
2022/08/24 06:23:10;;;;;;;16.83;9.25;;;20.40;99.90;;;;;;5076373;28;20044;-77
2022/08/24 06:28:31;;;;;;;;;;;20.50;99.90;;;;;;5079667;28;20040;-79
2022/08/24 06:31:03;;;;;;;11.95;8.40;;;20.40;99.90;;;;;;5058950;28;19920;-77
2022/08/24 06:33:31;;;;;;;11.07;9.57;;;20.40;99.90;;;;;;5059069;28;20044;-77
2022/08/24 06:35:59;;;;;;;18.30;14.77;;;20.50;99.90;;;;;;5093557;28;20101;-75
2022/08/24 06:38:27;;;;;;;11.25;9.20;;;20.50;99.90;;;;;;5078033;28;20047;-77
2022/08/24 06:40:56;;;;;;;15.88;12.90;;;20.60;99.90;;;;;;5062805;28;20040;-77
2022/08/24 06:43:23;;;;;;;15.18;9.80;;;20.60;99.90;;;;;;5076172;28;20041;-77
2022/08/24 06:45:53;;;;;;;11.40;9.15;;;20.80;99.90;;;;;;5060017;28;20063;-77
2022/08/24 06:48:25;;;;;;;12.52;10.02;;;20.80;99.90;;;;;;5058049;28;20045;-78
2022/08/24 06:50:54;;;;;;;13.25;8.15;;;20.90;99.90;;;;;;5058525;28;20043;-78
2022/08/24 06:53:21;;;;;;;12.13;8.93;;;20.90;99.90;;;;;;5058449;28;20055;-78
2022/08/24 06:55:50;;;;;;;15.55;9.02;;;21.00;99.90;;;;;;5057904;28;20036;-78
2022/08/24 06:58:20;;;;;;;11.15;8.40;;;21.10;99.90;;;;;;5057025;28;20036;-78
2022/08/24 07:00:48;;;;;;;13.68;8.13;;;21.10;99.90;;;;;;5075933;28;20446;-77
2022/08/24 07:03:17;;;;;;;11.98;8.98;;;21.00;99.90;;;;;;5057552;28;20048;-78
2022/08/24 07:05:54;;;;;;;11.40;9.30;;;20.90;99.90;;;;;;5058928;28;20044;-78
2022/08/24 07:08:42;;;;;;;49.20;13.27;;;20.90;99.90;;;;;;5058506;28;20072;-77
2022/08/24 07:11:13;;;;;;;15.93;11.45;;;21.00;99.90;;;;;;5059081;28;20052;-78
2022/08/24 07:13:42;;;;;;;17.42;9.07;;;21.00;99.90;;;;;;5079928;28;20033;-76
2022/08/24 07:16:09;;;;;;;11.85;8.13;;;21.00;99.90;;;;;;5057850;28;20056;-77
2022/08/24 07:18:38;;;;;;;9.63;6.47;;;20.90;99.90;;;;;;5056609;28;20131;-78
2022/08/24 07:21:06;;;;;;;13.32;8.60;;;20.70;99.90;;;;;;5058371;28;20051;-78
2022/08/24 07:23:41;;;;;;;12.95;8.18;;;20.50;99.90;;;;;;5058325;28;20094;-79
2022/08/24 07:26:09;;;;;;;12.18;8.20;;;20.50;99.90;;;;;;5077363;28;20059;-77
2022/08/24 07:28:39;;;;;;;13.10;8.38;;;20.40;99.90;;;;;;5078379;28;20175;-77
2022/08/24 07:31:12;;;;;;;12.50;8.73;;;20.40;99.90;;;;;;5078438;28;20043;-78
2022/08/24 07:33:46;;;;;;;11.55;7.78;;;20.30;99.90;;;;;;5064947;28;20039;-76
2022/08/24 07:36:16;;;;;;;8.75;7.43;;;20.50;99.90;;;;;;5073051;28;20055;-78
2022/08/24 07:38:44;;;;;;;11.93;8.27;;;20.50;99.90;;;;;;5073463;28;20044;-78
2022/08/24 07:41:13;;;;;;;14.73;7.60;;;20.70;99.90;;;;;;5065616;28;20045;-78
2022/08/24 07:43:41;;;;;;;9.90;6.93;;;20.80;99.90;;;;;;5057432;28;20051;-77
2022/08/24 07:46:10;;;;;;;14.00;8.30;;;20.90;99.90;;;;;;5054244;28;20047;-77
2022/08/24 07:48:37;;;;;;;10.50;8.80;;;21.00;99.90;;;;;;5056660;28;20090;-77
2022/08/24 07:51:09;;;;;;;12.88;10.82;;;21.00;99.90;;;;;;5049652;28;20045;-77
2022/08/24 07:53:38;;;;;;;12.73;8.43;;;21.00;99.90;;;;;;5059088;28;20052;-79
2022/08/24 07:56:06;;;;;;;12.10;10.85;;;21.10;99.90;;;;;;5058131;28;20049;-77
2022/08/24 07:58:36;;;;;;;15.13;12.10;;;21.20;99.90;;;;;;5063106;28;20483;-77
2022/08/24 08:01:06;;;;;;;13.65;9.77;;;21.40;99.90;;;;;;5071536;28;20040;-78
2022/08/24 08:03:36;;;;;;;15.45;11.13;;;21.50;99.90;;;;;;5065939;28;20040;-76
2022/08/24 08:06:06;;;;;;;14.77;11.48;;;21.60;99.90;;;;;;5074767;28;20460;-76
2022/08/24 08:08:36;;;;;;;14.25;10.38;;;21.70;99.90;;;;;;5062405;28;20059;-78
2022/08/24 08:11:03;;;;;;;11.20;9.02;;;21.60;99.90;;;;;;5056210;28;20086;-77
2022/08/24 08:13:31;;;;;;;12.73;9.40;;;21.70;99.90;;;;;;5054180;28;20053;-77
2022/08/24 08:16:00;;;;;;;15.40;9.07;;;21.80;99.90;;;;;;5054997;28;20037;-78
2022/08/24 08:18:28;;;;;;;11.63;9.43;;;22.10;99.90;;;;;;5073579;28;20093;-76
2022/08/24 08:21:00;;;;;;;13.43;8.52;;;22.20;99.90;;;;;;5064438;28;20513;-77
2022/08/24 08:26:19;;;;;;;18.50;12.93;;;22.20;99.90;;;;;;5056021;28;20044;-79
2022/08/24 08:29:23;;;;;;;16.00;12.65;;;22.10;99.90;;;;;;4999839;28;20069;-78
2022/08/24 08:31:50;;;;;;;19.70;13.38;;;22.10;99.90;;;;;;5045739;28;20124;-78
2022/08/24 08:34:18;;;;;;;16.08;13.40;;;22.20;99.90;;;;;;5078660;28;20040;-79
2022/08/24 08:36:49;;;;;;;21.38;13.68;;;22.30;99.90;;;;;;5045108;28;20098;-78
2022/08/24 08:39:20;;;;;;;20.83;14.05;;;22.20;99.90;;;;;;5037290;28;20045;-78
2022/08/24 08:42:27;;;;;;;18.30;11.75;;;22.20;99.90;;;;;;5045905;28;20040;-76
2022/08/24 08:45:25;;;;;;;19.15;13.00;;;22.10;99.90;;;;;;5064920;28;20050;-78
2022/08/24 08:48:41;;;;;;;16.40;9.05;;;22.10;99.90;;;;;;5060282;28;20048;-78
2022/08/24 08:51:36;;;;;;;12.65;8.88;;;22.10;99.90;;;;;;5057801;28;20045;-78
2022/08/24 08:54:28;;;;;;;11.40;8.30;;;22.10;99.90;;;;;;5013302;28;20071;-79
2022/08/24 08:57:14;;;;;;;14.88;9.93;;;22.20;99.90;;;;;;5076431;28;20032;-78
2022/08/24 08:59:55;;;;;;;11.65;9.23;;;22.30;99.90;;;;;;5058162;28;20049;-78
2022/08/24 09:02:36;;;;;;;18.83;13.32;;;22.50;99.90;;;;;;5055909;28;20102;-77
2022/08/24 09:05:50;;;;;;;11.90;10.63;;;22.80;99.90;;;;;;5043603;28;20045;-79
2022/08/24 09:08:34;;;;;;;13.13;9.50;;;23.20;99.90;;;;;;4986561;28;20058;-75
2022/08/24 09:11:12;;;;;;;10.43;9.32;;;23.30;99.90;;;;;;5051339;28;20040;-78
2022/08/24 09:13:57;;;;;;;11.63;8.48;;;23.30;99.90;;;;;;5061763;28;20051;-79
2022/08/24 09:17:05;;;;;;;9.55;6.93;;;23.20;99.90;;;;;;5059652;28;20154;-78
2022/08/24 09:19:50;;;;;;;13.45;7.15;;;23.20;99.90;;;;;;5075337;28;20071;-77
2022/08/24 09:22:20;;;;;;;12.02;8.60;;;23.20;99.90;;;;;;5056742;28;20041;-78
2022/08/24 09:25:23;;;;;;;15.02;8.18;;;23.40;99.90;;;;;;5061085;28;20045;-78
2022/08/24 09:28:31;;;;;;;9.90;8.48;;;23.60;99.90;;;;;;4983094;28;20047;-78
2022/08/24 09:31:42;;;;;;;9.82;7.32;;;23.30;99.90;;;;;;5054645;28;20037;-77
2022/08/24 09:34:19;;;;;;;8.10;5.93;;;23.10;99.90;;;;;;5059585;28;20479;-78
2022/08/24 09:36:53;;;;;;;9.77;7.03;;;23.20;99.90;;;;;;5090341;28;20059;-75
2022/08/24 09:39:37;;;;;;;11.32;7.63;;;23.10;99.90;;;;;;5073178;28;20040;-74
2022/08/24 09:42:30;;;;;;;14.77;9.45;;;23.20;99.90;;;;;;5070248;28;20060;-75
2022/08/24 09:45:28;;;;;;;18.10;8.00;;;23.20;99.90;;;;;;5066867;28;20049;-76
2022/08/24 09:48:22;;;;;;;9.82;7.57;;;23.50;99.90;;;;;;5077007;28;20051;-75
2022/08/24 09:51:24;;;;;;;11.75;6.72;;;23.80;99.90;;;;;;5072866;28;20127;-75
2022/08/24 09:54:41;;;;;;;32.03;24.40;;;23.60;99.90;;;;;;5077136;28;20044;-76
2022/08/24 09:57:38;;;;;;;11.25;8.68;;;23.40;99.90;;;;;;4995139;28;20049;-75
2022/08/24 10:00:12;;;;;;;25.92;16.38;;;23.40;99.90;;;;;;5057415;28;20044;-75
2022/08/24 10:02:58;;;;;;;11.77;9.07;;;23.30;99.90;;;;;;5058193;28;20036;-76
2022/08/24 10:05:42;;;;;;;15.35;6.78;;;23.30;99.90;;;;;;5075657;28;20059;-75
2022/08/24 10:08:19;;;;;;;9.60;7.65;;;23.20;99.90;;;;;;5073817;28;20045;-75
2022/08/24 10:10:58;;;;;;;7.55;6.20;;;23.00;99.90;;;;;;5073747;28;20036;-74
2022/08/24 10:13:32;;;;;;;9.70;5.65;;;23.10;99.90;;;;;;5063183;28;20049;-75
2022/08/24 10:16:21;;;;;;;9.98;6.07;;;23.20;99.90;;;;;;5072744;28;20048;-75
2022/08/24 10:19:01;;;;;;;7.32;5.35;;;23.30;99.90;;;;;;5054125;28;20053;-75
2022/08/24 10:21:45;;;;;;;7.55;5.65;;;23.30;99.90;;;;;;5053191;28;20049;-75
2022/08/24 10:24:33;;;;;;;15.20;9.52;;;23.20;99.90;;;;;;5073463;28;20040;-74
2022/08/24 10:27:17;;;;;;;8.05;5.60;;;23.20;99.90;;;;;;5081265;28;20048;-76
2022/08/24 10:30:21;;;;;;;11.25;6.07;;;23.00;99.90;;;;;;5069379;28;20055;-75
2022/08/24 10:33:04;;;;;;;13.75;8.00;;;22.90;99.90;;;;;;5059865;28;20473;-75
2022/08/24 10:35:37;;;;;;;9.25;6.55;;;22.90;99.90;;;;;;5081197;28;20090;-77
2022/08/24 10:41:47;;;;;;;9.63;6.72;;;23.30;99.90;;;;;;5069144;28;20135;-74
2022/08/24 10:44:33;;;;;;;7.65;6.20;;;23.30;99.90;;;;;;5076281;28;20044;-75
2022/08/24 10:47:06;;;;;;;10.07;6.32;;;23.00;99.90;;;;;;5056279;28;20048;-75
2022/08/24 10:50:03;;;;;;;8.23;5.80;;;23.00;99.90;;;;;;5066100;28;20045;-75
2022/08/24 10:53:09;;;;;;;20.95;14.55;;;22.90;99.90;;;;;;5075719;28;20045;-75
2022/08/24 10:55:40;;;;;;;9.82;7.60;;;22.90;99.90;;;;;;5075927;28;20426;-74
2022/08/24 10:58:24;;;;;;;19.92;9.55;;;22.80;99.90;;;;;;5080232;28;20092;-74
2022/08/24 11:00:52;;;;;;;14.02;9.10;;;22.90;99.90;;;;;;5079415;28;20036;-75
2022/08/24 11:03:25;;;;;;;13.57;9.60;;;22.90;99.90;;;;;;5084592;28;20064;-75
2022/08/24 11:05:54;;;;;;;27.00;11.48;;;22.90;99.90;;;;;;5084975;28;20053;-75
2022/08/24 11:08:25;;;;;;;13.20;7.72;;;22.90;99.90;;;;;;5086313;28;20097;-75
2022/08/24 11:11:08;;;;;;;11.27;8.43;;;22.90;99.90;;;;;;5083287;28;20475;-75
2022/08/24 11:13:38;;;;;;;12.63;7.32;;;22.80;99.90;;;;;;5075734;28;20045;-74
2022/08/24 11:16:06;;;;;;;12.45;7.50;;;22.70;99.90;;;;;;5079504;28;20044;-75
2022/08/24 11:18:55;;;;;;;12.13;7.90;;;22.50;99.90;;;;;;5081629;28;20550;-75
2022/08/24 11:21:37;;;;;;;14.13;9.38;;;22.40;99.90;;;;;;5077998;28;20060;-74
2022/08/24 11:24:10;;;;;;;13.05;10.00;;;22.50;99.90;;;;;;5081592;28;20098;-74
2022/08/24 11:26:50;;;;;;;18.15;13.68;;;22.50;99.90;;;;;;5100355;28;20101;-74
2022/08/24 11:29:18;;;;;;;12.93;9.98;;;22.50;99.90;;;;;;5097494;28;20036;-74
2022/08/24 11:31:53;;;;;;;17.67;9.27;;;22.40;99.90;;;;;;5078229;28;20047;-74
2022/08/24 11:34:32;;;;;;;14.75;9.40;;;22.50;99.90;;;;;;5095567;28;20094;-75
2022/08/24 11:36:59;;;;;;;14.75;11.48;;;22.50;99.90;;;;;;5094778;28;20060;-75
2022/08/24 11:39:33;;;;;;;10.45;6.80;;;22.50;99.90;;;;;;5096163;28;20055;-75
2022/08/24 11:42:07;;;;;;;7.78;6.00;;;22.50;99.90;;;;;;5096430;28;20043;-74
2022/08/24 11:44:45;;;;;;;7.80;5.93;;;22.60;99.90;;;;;;5096062;28;20218;-74
2022/08/24 11:47:35;;;;;;;11.32;7.78;;;22.50;99.90;;;;;;5077610;28;20148;-74
2022/08/24 11:50:13;;;;;;;10.30;7.78;;;22.50;99.90;;;;;;5095560;28;20445;-75
2022/08/24 11:52:51;;;;;;;8.75;6.20;;;22.50;99.90;;;;;;5095641;28;20040;-74
2022/08/24 11:55:30;;;;;;;10.45;6.22;;;22.40;99.90;;;;;;5077920;28;20558;-74
2022/08/24 11:58:02;;;;;;;8.73;6.40;;;22.20;99.90;;;;;;5077760;28;20070;-75
2022/08/24 12:00:45;;;;;;;8.30;6.63;;;22.10;99.90;;;;;;5095488;28;20036;-74
2022/08/24 12:03:30;;;;;;;7.47;6.03;;;22.00;99.90;;;;;;5095565;28;20062;-75
2022/08/24 12:06:03;;;;;;;9.13;7.03;;;22.00;99.90;;;;;;5095129;28;20047;-74
2022/08/24 12:08:36;;;;;;;12.93;7.30;;;21.90;99.90;;;;;;5090984;28;20036;-74
2022/08/24 12:11:13;;;;;;;14.05;10.23;;;21.80;99.90;;;;;;5074773;28;20036;-75
2022/08/24 12:13:48;;;;;;;13.80;10.30;;;21.70;99.90;;;;;;5074595;28;20091;-75
2022/08/24 12:16:23;;;;;;;19.17;12.13;;;21.70;99.90;;;;;;5057372;28;20053;-75
2022/08/24 12:18:56;;;;;;;15.50;11.27;;;21.60;99.90;;;;;;5039697;28;20127;-74
2022/08/24 12:21:30;;;;;;;11.95;9.00;;;21.60;99.90;;;;;;5072753;28;20071;-75
2022/08/24 12:24:03;;;;;;;12.13;9.80;;;21.70;99.90;;;;;;5057313;28;20430;-75
2022/08/24 12:26:38;;;;;;;11.30;8.35;;;21.70;99.90;;;;;;5084156;28;20041;-74
2022/08/24 12:29:09;;;;;;;11.02;8.48;;;21.80;99.90;;;;;;5056469;28;20090;-75
2022/08/24 12:31:42;;;;;;;13.75;8.13;;;21.80;99.90;;;;;;5074469;28;20096;-75
2022/08/24 12:34:14;;;;;;;14.45;10.05;;;21.80;99.90;;;;;;5078489;28;20036;-74
2022/08/24 12:36:51;;;;;;;14.82;9.18;;;21.90;99.90;;;;;;5097276;28;20494;-72
2022/08/24 12:39:23;;;;;;;14.23;9.43;;;22.00;99.90;;;;;;5061787;28;20083;-74
2022/08/24 12:42:02;;;;;;;11.15;7.85;;;22.00;99.90;;;;;;5055476;28;20067;-74
2022/08/24 12:44:37;;;;;;;9.75;7.90;;;22.10;99.90;;;;;;5073393;28;20040;-74
2022/08/24 12:47:05;;;;;;;;;;;22.20;99.90;;;;;;5055955;28;20059;-74
2022/08/24 12:49:39;;;;;;;11.10;9.35;;;22.30;99.90;;;;;;5055153;28;19920;-75
2022/08/24 12:52:34;;;;;;;11.15;9.57;;;22.40;99.90;;;;;;5073615;28;20071;-74
2022/08/24 12:55:23;;;;;;;12.60;8.02;;;22.40;99.90;;;;;;5055947;28;20048;-74
2022/08/24 12:58:04;;;;;;;14.38;10.57;;;22.50;99.90;;;;;;5074064;28;20044;-74
2022/08/24 13:00:37;;;;;;;10.75;8.32;;;22.70;99.90;;;;;;5073163;28;20044;-74
2022/08/24 13:03:07;;;;;;;13.27;11.20;;;22.80;99.90;;;;;;5073823;28;20040;-75
2022/08/24 13:05:42;;;;;;;14.15;11.98;;;23.00;99.90;;;;;;5077761;28;20040;-75
2022/08/24 13:08:14;;;;;;;20.05;15.02;;;23.20;99.90;;;;;;5052577;28;20075;-75
2022/08/24 13:10:51;;;;;;;19.92;15.27;;;23.50;99.90;;;;;;5053575;28;20084;-75
2022/08/24 13:13:42;;;;;;;26.17;20.17;;;23.70;99.90;;;;;;5066823;28;20455;-76
2022/08/24 13:16:09;;;;;;;26.75;21.83;;;23.90;99.90;;;;;;5071710;28;20144;-75
2022/08/24 13:18:50;;;;;;;15.77;12.98;;;23.90;99.90;;;;;;5072688;28;20141;-76
2022/08/24 13:21:36;;;;;;;14.73;13.07;;;23.50;99.90;;;;;;5073544;28;20061;-76